SCCY/GXQ METAR and TAF weather

Enter ICAO airport designator
Station Type Date Time Source
SCCY METAR 2021/03/04 22:00 UTC NOAA

SCCY 042200Z 21009KT CAVOK 24/09 Q1015


Station Type Date Time Source
SCCY Decoded METAR 2021/03/04 22:00 UTC NOAA

Coyhaique, Chile (SCCY) 45-35S 072-07W
Mar 04, 2021 - 05:00 PM EST / 2021.03.04 2200 UTC
Wind: from the SSW (210 degrees) at 10 MPH (9 KT):0
Visibility: greater than 7 mile(s):0
Temperature: 75 F (24 C)
Dew Point: 48 F (9 C)
Relative Humidity: 38%
Pressure (altimeter): 29.97 in. Hg (1015 hPa)
ob: SCCY 042200Z 21009KT CAVOK 24/09 Q1015
cycle: 22

Station Type Date Time Source
SCCY TAF 2021/03/04 12:33 UTC NOAA

TAF SCCY 041024Z 0412/0424 VRB02KT 9999 FEW035 TN08/0412Z TX27/0420Z
BECMG 0413/0415 CAVOK

Example: see airport list